Seaspan Saigon — VRBT7 — position and weather

sailwx.info

Track history (hours):
 
Tides and Currents Weather Stations Pressure Air Temp Water Temp Dewpoint Dewpoint Depression Visibility Wind Speed Wind Dir Waves Ship Positions

Seaspan Saigon

Last reported at 2016-Dec-07 13:17 UTC. Time now 2016-Dec-09 13:40 UTC.
Position N 38°59' E 009°36'.

Length 260 m; draft 10.3 m.

Type: Ship (hazmat cat A). MMSI: 477106800.

Date/timePositionNaut miles runAvg speedWind from/ knotsBaromVisibWave heightAir tempDewpointWater temp
2016-Dec-07 13:17N 38°59' E 009°36'7 9.0
2016-Dec-07 12:32N 38°59' E 009°28'1111.4
2016-Dec-07 11:33N 39°02' E 009°14'1010.4
2016-Dec-07 10:33N 39°11' E 009°06'3 2.6
2016-Dec-07 09:32N 39°13' E 009°04'0 0.0
2016-Dec-07 08:32N 39°13' E 009°04'0 0.0
2016-Dec-07 07:32N 39°13' E 009°04'0 0.0
2016-Dec-07 06:32N 39°13' E 009°04'0 0.0
2016-Dec-07 05:29N 39°13' E 009°04'0 0.0
2016-Dec-07 04:32N 39°13' E 009°04'0 0.0
2016-Dec-07 03:32N 39°13' E 009°04'0 0.0
2016-Dec-07 02:32N 39°13' E 009°04'0 0.0
2016-Dec-07 01:32N 39°13' E 009°04'0 0.0
2016-Dec-07 00:31N 39°13' E 009°04'0 0.0
2016-Dec-06 23:31N 39°13' E 009°04'0 0.0
2016-Dec-06 22:31N 39°13' E 009°04'0 0.0
2016-Dec-06 21:31N 39°13' E 009°04'0 0.0
2016-Dec-06 20:31N 39°13' E 009°04'0 0.0
2016-Dec-06 18:31N 39°13' E 009°04'0 0.0
2016-Dec-06 17:28N 39°13' E 009°04'0 0.0
2016-Dec-06 16:31N 39°13' E 009°04'0 0.0
2016-Dec-06 15:31N 39°13' E 009°04'0 0.0
2016-Dec-06 14:31N 39°13' E 009°04'0 0.0
2016-Dec-06 13:31N 39°13' E 009°04'0 0.0
2016-Dec-06 12:31N 39°13' E 009°04'0 0.0
2016-Dec-06 11:31N 39°13' E 009°04'0 0.0
2016-Dec-06 10:31N 39°13' E 009°04'0 0.0
2016-Dec-06 09:31N 39°13' E 009°04'0 0.0
2016-Dec-06 08:31N 39°13' E 009°04'0 0.0
2016-Dec-06 07:31N 39°13' E 009°04'0 0.0
2016-Dec-06 06:31N 39°13' E 009°04'0 0.0
2016-Dec-06 05:31N 39°13' E 009°04'0 0.0
2016-Dec-06 04:31N 39°13' E 009°04'0 0.0
2016-Dec-06 03:31N 39°13' E 009°04'0 0.0
2016-Dec-06 02:31N 39°13' E 009°04'0 0.0
2016-Dec-06 01:31N 39°13' E 009°04'0 0.0
2016-Dec-06 00:31N 39°13' E 009°04'0 0.0
2016-Dec-05 23:31N 39°13' E 009°04'0 0.0
2016-Dec-05 22:31N 39°13' E 009°04'0 0.0
2016-Dec-05 21:31N 39°13' E 009°04'0 0.0
2016-Dec-05 20:31N 39°13' E 009°04'0 0.5
2016-Dec-05 19:33N 39°13' E 009°04'6 6.3
2016-Dec-05 18:33N 39°07' E 009°06'3 3.3
2016-Dec-05 17:33N 39°04' E 009°09'2 2.4
2016-Dec-05 16:33N 39°06' E 009°07'8 7.7
2016-Dec-05 15:33N 38°59' E 009°08'71114.8
2016-Dec-03 15:33N 35°59' W 005°19'  
2016-Nov-30 10:18N 36°30' W 023°32'1114.9
2016-Nov-30 09:33N 36°30' W 023°46'1514.7
2016-Nov-30 08:33N 36°30' W 024°04'1514.7
2016-Nov-30 07:33N 36°30' W 024°22'1514.6
2016-Nov-30 06:34N 36°30' W 024°40'1414.4
2016-Nov-30 05:33N 36°30' W 024°58'1514.7
2016-Nov-30 04:33N 36°29' W 025°17'1514.8
2016-Nov-30 03:33N 36°29' W 025°35'1514.7
2016-Nov-30 02:33N 36°28' W 025°53'1514.5
2016-Nov-30 01:33N 36°27' W 026°11'  
Track history (hours):
 
Tides and Currents Weather Stations Pressure Air Temp Water Temp Dewpoint Dewpoint Depression Visibility Wind Speed Wind Dir Waves Ship Positions

Seaspan Saigon

Last reported at 2016-Dec-07 13:17 UTC. Time now 2016-Dec-09 13:40 UTC.
Position N 38°59' E 009°36'.

Length 260 m; draft 10.3 m.

Type: Ship (hazmat cat A). MMSI: 477106800.

Date/timePositionNaut miles runAvg speedWind from/ knotsBaromVisibWave heightAir tempDewpointWater temp
2016-Dec-07 13:17N 38°59' E 009°36'7 9.0
2016-Dec-07 12:32N 38°59' E 009°28'1111.4
2016-Dec-07 11:33N 39°02' E 009°14'1010.4
2016-Dec-07 10:33N 39°11' E 009°06'3 2.6
2016-Dec-07 09:32N 39°13' E 009°04'0 0.0
2016-Dec-07 08:32N 39°13' E 009°04'0 0.0
2016-Dec-07 07:32N 39°13' E 009°04'0 0.0
2016-Dec-07 06:32N 39°13' E 009°04'0 0.0
2016-Dec-07 05:29N 39°13' E 009°04'0 0.0
2016-Dec-07 04:32N 39°13' E 009°04'0 0.0
2016-Dec-07 03:32N 39°13' E 009°04'0 0.0
2016-Dec-07 02:32N 39°13' E 009°04'0 0.0
2016-Dec-07 01:32N 39°13' E 009°04'0 0.0
2016-Dec-07 00:31N 39°13' E 009°04'0 0.0
2016-Dec-06 23:31N 39°13' E 009°04'0 0.0
2016-Dec-06 22:31N 39°13' E 009°04'0 0.0
2016-Dec-06 21:31N 39°13' E 009°04'0 0.0
2016-Dec-06 20:31N 39°13' E 009°04'0 0.0
2016-Dec-06 18:31N 39°13' E 009°04'0 0.0
2016-Dec-06 17:28N 39°13' E 009°04'0 0.0
2016-Dec-06 16:31N 39°13' E 009°04'0 0.0
2016-Dec-06 15:31N 39°13' E 009°04'0 0.0
2016-Dec-06 14:31N 39°13' E 009°04'0 0.0
2016-Dec-06 13:31N 39°13' E 009°04'0 0.0
2016-Dec-06 12:31N 39°13' E 009°04'0 0.0
2016-Dec-06 11:31N 39°13' E 009°04'0 0.0
2016-Dec-06 10:31N 39°13' E 009°04'0 0.0
2016-Dec-06 09:31N 39°13' E 009°04'0 0.0
2016-Dec-06 08:31N 39°13' E 009°04'0 0.0
2016-Dec-06 07:31N 39°13' E 009°04'0 0.0
2016-Dec-06 06:31N 39°13' E 009°04'0 0.0
2016-Dec-06 05:31N 39°13' E 009°04'0 0.0
2016-Dec-06 04:31N 39°13' E 009°04'0 0.0
2016-Dec-06 03:31N 39°13' E 009°04'0 0.0
2016-Dec-06 02:31N 39°13' E 009°04'0 0.0
2016-Dec-06 01:31N 39°13' E 009°04'0 0.0
2016-Dec-06 00:31N 39°13' E 009°04'0 0.0
2016-Dec-05 23:31N 39°13' E 009°04'0 0.0
2016-Dec-05 22:31N 39°13' E 009°04'0 0.0
2016-Dec-05 21:31N 39°13' E 009°04'0 0.0
2016-Dec-05 20:31N 39°13' E 009°04'0 0.5
2016-Dec-05 19:33N 39°13' E 009°04'6 6.3
2016-Dec-05 18:33N 39°07' E 009°06'3 3.3
2016-Dec-05 17:33N 39°04' E 009°09'2 2.4
2016-Dec-05 16:33N 39°06' E 009°07'8 7.7
2016-Dec-05 15:33N 38°59' E 009°08'71114.8
2016-Dec-03 15:33N 35°59' W 005°19'  
2016-Nov-30 10:18N 36°30' W 023°32'1114.9
2016-Nov-30 09:33N 36°30' W 023°46'1514.7
2016-Nov-30 08:33N 36°30' W 024°04'1514.7
2016-Nov-30 07:33N 36°30' W 024°22'1514.6
2016-Nov-30 06:34N 36°30' W 024°40'1414.4
2016-Nov-30 05:33N 36°30' W 024°58'1514.7
2016-Nov-30 04:33N 36°29' W 025°17'1514.8
2016-Nov-30 03:33N 36°29' W 025°35'1514.7
2016-Nov-30 02:33N 36°28' W 025°53'1514.5
2016-Nov-30 01:33N 36°27' W 026°11'  

Dump ship's entire track history